sensor_id;sensor_type;location;lat;lon;timestamp;P1;durP1;ratioP1;P2;durP2;ratioP2
20393;SDS011;10356;50.544;9.642;2023-12-07T00:00:30;41.50;;;23.53;;
20393;SDS011;10356;50.544;9.642;2023-12-07T00:02:56;40.67;;;21.70;;
20393;SDS011;10356;50.544;9.642;2023-12-07T00:05:24;39.73;;;22.93;;
20393;SDS011;10356;50.544;9.642;2023-12-07T00:07:52;44.57;;;24.90;;
20393;SDS011;10356;50.544;9.642;2023-12-07T00:10:18;35.40;;;21.23;;
20393;SDS011;10356;50.544;9.642;2023-12-07T00:12:45;41.97;;;23.93;;
20393;SDS011;10356;50.544;9.642;2023-12-07T00:15:11;34.07;;;21.13;;
20393;SDS011;10356;50.544;9.642;2023-12-07T00:17:38;37.17;;;22.37;;
20393;SDS011;10356;50.544;9.642;2023-12-07T00:20:05;40.83;;;22.97;;
20393;SDS011;10356;50.544;9.642;2023-12-07T00:22:32;39.20;;;22.43;;
20393;SDS011;10356;50.544;9.642;2023-12-07T00:25:00;40.20;;;22.53;;
20393;SDS011;10356;50.544;9.642;2023-12-07T00:27:26;40.70;;;24.33;;
20393;SDS011;10356;50.544;9.642;2023-12-07T00:29:53;43.30;;;22.30;;
20393;SDS011;10356;50.544;9.642;2023-12-07T00:32:19;40.17;;;21.97;;
20393;SDS011;10356;50.544;9.642;2023-12-07T00:34:46;38.13;;;22.67;;
20393;SDS011;10356;50.544;9.642;2023-12-07T00:37:14;34.00;;;21.37;;
20393;SDS011;10356;50.544;9.642;2023-12-07T00:39:40;35.00;;;21.30;;
20393;SDS011;10356;50.544;9.642;2023-12-07T00:42:08;32.93;;;19.73;;
20393;SDS011;10356;50.544;9.642;2023-12-07T00:44:38;30.17;;;18.77;;
20393;SDS011;10356;50.544;9.642;2023-12-07T00:47:05;31.30;;;20.30;;
20393;SDS011;10356;50.544;9.642;2023-12-07T00:49:31;34.40;;;20.90;;
20393;SDS011;10356;50.544;9.642;2023-12-07T00:51:58;31.13;;;19.80;;
20393;SDS011;10356;50.544;9.642;2023-12-07T00:54:24;26.50;;;18.00;;
20393;SDS011;10356;50.544;9.642;2023-12-07T00:56:51;29.73;;;17.87;;
20393;SDS011;10356;50.544;9.642;2023-12-07T00:59:19;27.13;;;17.30;;
20393;SDS011;10356;50.544;9.642;2023-12-07T01:01:45;25.03;;;17.13;;
20393;SDS011;10356;50.544;9.642;2023-12-07T01:04:12;24.53;;;17.03;;
20393;SDS011;10356;50.544;9.642;2023-12-07T01:06:38;26.27;;;16.87;;
20393;SDS011;10356;50.544;9.642;2023-12-07T01:09:04;26.40;;;16.80;;
20393;SDS011;10356;50.544;9.642;2023-12-07T01:11:31;24.67;;;17.70;;
20393;SDS011;10356;50.544;9.642;2023-12-07T01:13:57;24.70;;;16.47;;
20393;SDS011;10356;50.544;9.642;2023-12-07T01:16:25;22.73;;;15.97;;
20393;SDS011;10356;50.544;9.642;2023-12-07T01:18:52;25.00;;;16.40;;
20393;SDS011;10356;50.544;9.642;2023-12-07T01:21:18;27.80;;;18.00;;
20393;SDS011;10356;50.544;9.642;2023-12-07T01:23:44;28.50;;;17.03;;
20393;SDS011;10356;50.544;9.642;2023-12-07T01:26:11;26.97;;;17.77;;
20393;SDS011;10356;50.544;9.642;2023-12-07T01:28:37;28.77;;;18.47;;
20393;SDS011;10356;50.544;9.642;2023-12-07T01:31:04;29.53;;;17.53;;
20393;SDS011;10356;50.544;9.642;2023-12-07T01:33:32;25.23;;;17.53;;
20393;SDS011;10356;50.544;9.642;2023-12-07T01:35:58;23.93;;;16.30;;
20393;SDS011;10356;50.544;9.642;2023-12-07T01:38:25;25.57;;;17.03;;
20393;SDS011;10356;50.544;9.642;2023-12-07T01:40:51;26.60;;;15.93;;
20393;SDS011;10356;50.544;9.642;2023-12-07T01:43:19;24.37;;;15.97;;
20393;SDS011;10356;50.544;9.642;2023-12-07T01:45:48;25.67;;;18.10;;
20393;SDS011;10356;50.544;9.642;2023-12-07T01:48:18;21.43;;;14.90;;
20393;SDS011;10356;50.544;9.642;2023-12-07T01:50:46;24.17;;;16.30;;
20393;SDS011;10356;50.544;9.642;2023-12-07T01:53:13;19.87;;;14.07;;
20393;SDS011;10356;50.544;9.642;2023-12-07T01:55:41;19.10;;;12.87;;
20393;SDS011;10356;50.544;9.642;2023-12-07T01:58:08;19.90;;;12.63;;
20393;SDS011;10356;50.544;9.642;2023-12-07T02:00:35;19.00;;;13.33;;
20393;SDS011;10356;50.544;9.642;2023-12-07T02:03:03;18.97;;;13.57;;
20393;SDS011;10356;50.544;9.642;2023-12-07T02:05:31;16.97;;;12.77;;
20393;SDS011;10356;50.544;9.642;2023-12-07T02:07:59;19.97;;;13.50;;
20393;SDS011;10356;50.544;9.642;2023-12-07T02:10:25;19.80;;;12.97;;
20393;SDS011;10356;50.544;9.642;2023-12-07T02:12:52;17.10;;;12.20;;
20393;SDS011;10356;50.544;9.642;2023-12-07T02:15:20;20.27;;;12.87;;
20393;SDS011;10356;50.544;9.642;2023-12-07T02:17:49;20.10;;;13.27;;
20393;SDS011;10356;50.544;9.642;2023-12-07T02:20:21;21.27;;;13.27;;
20393;SDS011;10356;50.544;9.642;2023-12-07T02:22:52;19.57;;;12.97;;
20393;SDS011;10356;50.544;9.642;2023-12-07T02:25:23;21.37;;;12.57;;
20393;SDS011;10356;50.544;9.642;2023-12-07T02:27:56;21.00;;;13.40;;
20393;SDS011;10356;50.544;9.642;2023-12-07T02:30:23;18.53;;;13.43;;
20393;SDS011;10356;50.544;9.642;2023-12-07T02:32:49;18.43;;;13.27;;
20393;SDS011;10356;50.544;9.642;2023-12-07T02:35:16;21.07;;;13.90;;
20393;SDS011;10356;50.544;9.642;2023-12-07T02:37:43;22.03;;;14.17;;
20393;SDS011;10356;50.544;9.642;2023-12-07T02:40:12;21.83;;;14.67;;
20393;SDS011;10356;50.544;9.642;2023-12-07T02:42:40;23.63;;;16.03;;
20393;SDS011;10356;50.544;9.642;2023-12-07T02:45:09;21.33;;;14.93;;
20393;SDS011;10356;50.544;9.642;2023-12-07T02:47:37;23.90;;;14.93;;
20393;SDS011;10356;50.544;9.642;2023-12-07T02:50:04;23.73;;;15.13;;
20393;SDS011;10356;50.544;9.642;2023-12-07T02:52:32;21.40;;;14.37;;
20393;SDS011;10356;50.544;9.642;2023-12-07T02:54:59;20.97;;;15.27;;
20393;SDS011;10356;50.544;9.642;2023-12-07T02:57:25;20.70;;;14.77;;
20393;SDS011;10356;50.544;9.642;2023-12-07T02:59:52;26.80;;;16.87;;
20393;SDS011;10356;50.544;9.642;2023-12-07T03:02:19;26.40;;;16.47;;
20393;SDS011;10356;50.544;9.642;2023-12-07T03:04:46;27.50;;;17.23;;
20393;SDS011;10356;50.544;9.642;2023-12-07T03:07:13;26.47;;;17.33;;
20393;SDS011;10356;50.544;9.642;2023-12-07T03:09:39;26.57;;;17.60;;
20393;SDS011;10356;50.544;9.642;2023-12-07T03:12:06;27.40;;;17.87;;
20393;SDS011;10356;50.544;9.642;2023-12-07T03:14:31;28.47;;;18.33;;
20393;SDS011;10356;50.544;9.642;2023-12-07T03:16:58;23.73;;;16.80;;
20393;SDS011;10356;50.544;9.642;2023-12-07T03:19:26;25.33;;;16.07;;
20393;SDS011;10356;50.544;9.642;2023-12-07T03:21:52;26.53;;;17.40;;
20393;SDS011;10356;50.544;9.642;2023-12-07T03:24:19;25.77;;;16.90;;
20393;SDS011;10356;50.544;9.642;2023-12-07T03:26:45;27.57;;;18.27;;
20393;SDS011;10356;50.544;9.642;2023-12-07T03:29:11;31.17;;;19.20;;
20393;SDS011;10356;50.544;9.642;2023-12-07T03:31:38;32.27;;;19.93;;
20393;SDS011;10356;50.544;9.642;2023-12-07T03:34:05;33.87;;;20.97;;
20393;SDS011;10356;50.544;9.642;2023-12-07T03:36:33;35.30;;;22.27;;
20393;SDS011;10356;50.544;9.642;2023-12-07T03:38:59;33.50;;;21.40;;
20393;SDS011;10356;50.544;9.642;2023-12-07T03:41:26;32.07;;;20.30;;
20393;SDS011;10356;50.544;9.642;2023-12-07T03:43:52;35.13;;;20.83;;
20393;SDS011;10356;50.544;9.642;2023-12-07T03:46:18;38.00;;;21.90;;
20393;SDS011;10356;50.544;9.642;2023-12-07T03:48:45;39.37;;;22.23;;
20393;SDS011;10356;50.544;9.642;2023-12-07T03:51:12;35.37;;;20.90;;
20393;SDS011;10356;50.544;9.642;2023-12-07T03:53:42;32.93;;;20.87;;
20393;SDS011;10356;50.544;9.642;2023-12-07T03:56:09;30.57;;;19.53;;
20393;SDS011;10356;50.544;9.642;2023-12-07T03:58:35;39.10;;;20.60;;
20393;SDS011;10356;50.544;9.642;2023-12-07T04:01:02;33.40;;;19.80;;
20393;SDS011;10356;50.544;9.642;2023-12-07T04:03:28;37.87;;;21.57;;
20393;SDS011;10356;50.544;9.642;2023-12-07T04:05:55;32.70;;;21.93;;
20393;SDS011;10356;50.544;9.642;2023-12-07T04:08:21;37.00;;;20.93;;
20393;SDS011;10356;50.544;9.642;2023-12-07T04:10:49;32.90;;;20.43;;
20393;SDS011;10356;50.544;9.642;2023-12-07T04:13:16;32.80;;;20.03;;
20393;SDS011;10356;50.544;9.642;2023-12-07T04:15:43;32.63;;;19.67;;
20393;SDS011;10356;50.544;9.642;2023-12-07T04:18:10;30.87;;;19.07;;
20393;SDS011;10356;50.544;9.642;2023-12-07T04:20:36;33.77;;;20.27;;
20393;SDS011;10356;50.544;9.642;2023-12-07T04:23:03;32.70;;;20.10;;
20393;SDS011;10356;50.544;9.642;2023-12-07T04:25:29;35.10;;;20.10;;
20393;SDS011;10356;50.544;9.642;2023-12-07T04:27:57;30.30;;;19.97;;
20393;SDS011;10356;50.544;9.642;2023-12-07T04:30:23;32.90;;;20.67;;
20393;SDS011;10356;50.544;9.642;2023-12-07T04:32:50;31.67;;;20.07;;
20393;SDS011;10356;50.544;9.642;2023-12-07T04:35:16;30.23;;;19.60;;
20393;SDS011;10356;50.544;9.642;2023-12-07T04:37:43;30.27;;;18.17;;
20393;SDS011;10356;50.544;9.642;2023-12-07T04:40:09;27.63;;;18.07;;
20393;SDS011;10356;50.544;9.642;2023-12-07T04:42:37;29.20;;;17.90;;
20393;SDS011;10356;50.544;9.642;2023-12-07T04:45:05;34.90;;;19.97;;
20393;SDS011;10356;50.544;9.642;2023-12-07T04:47:32;31.87;;;18.77;;
20393;SDS011;10356;50.544;9.642;2023-12-07T04:49:59;32.37;;;19.80;;
20393;SDS011;10356;50.544;9.642;2023-12-07T04:52:25;37.63;;;21.03;;
20393;SDS011;10356;50.544;9.642;2023-12-07T04:54:52;32.20;;;19.30;;
20393;SDS011;10356;50.544;9.642;2023-12-07T04:57:18;34.80;;;20.67;;
20393;SDS011;10356;50.544;9.642;2023-12-07T04:59:44;37.70;;;21.17;;
20393;SDS011;10356;50.544;9.642;2023-12-07T05:02:13;34.73;;;20.43;;
20393;SDS011;10356;50.544;9.642;2023-12-07T05:04:40;36.40;;;21.63;;
20393;SDS011;10356;50.544;9.642;2023-12-07T05:07:06;34.37;;;21.83;;
20393;SDS011;10356;50.544;9.642;2023-12-07T05:09:32;37.03;;;21.53;;
20393;SDS011;10356;50.544;9.642;2023-12-07T05:11:59;34.67;;;19.57;;
20393;SDS011;10356;50.544;9.642;2023-12-07T05:14:25;33.07;;;20.30;;
20393;SDS011;10356;50.544;9.642;2023-12-07T05:16:52;33.63;;;20.63;;
20393;SDS011;10356;50.544;9.642;2023-12-07T05:19:22;28.63;;;19.10;;
20393;SDS011;10356;50.544;9.642;2023-12-07T05:21:48;30.37;;;19.10;;
20393;SDS011;10356;50.544;9.642;2023-12-07T05:24:15;32.20;;;19.47;;
20393;SDS011;10356;50.544;9.642;2023-12-07T05:26:42;31.00;;;18.87;;
20393;SDS011;10356;50.544;9.642;2023-12-07T05:29:11;31.20;;;18.17;;
20393;SDS011;10356;50.544;9.642;2023-12-07T05:31:37;34.20;;;20.10;;
20393;SDS011;10356;50.544;9.642;2023-12-07T05:34:04;33.03;;;18.70;;
20393;SDS011;10356;50.544;9.642;2023-12-07T05:36:33;30.10;;;19.27;;
20393;SDS011;10356;50.544;9.642;2023-12-07T05:38:58;29.57;;;18.43;;
20393;SDS011;10356;50.544;9.642;2023-12-07T05:41:25;31.10;;;18.77;;
20393;SDS011;10356;50.544;9.642;2023-12-07T05:43:51;31.13;;;19.40;;
20393;SDS011;10356;50.544;9.642;2023-12-07T05:46:18;33.97;;;19.80;;
20393;SDS011;10356;50.544;9.642;2023-12-07T05:48:45;36.33;;;21.90;;
20393;SDS011;10356;50.544;9.642;2023-12-07T05:51:12;37.20;;;21.30;;
20393;SDS011;10356;50.544;9.642;2023-12-07T05:53:40;39.47;;;23.80;;
20393;SDS011;10356;50.544;9.642;2023-12-07T05:56:08;38.20;;;23.10;;
20393;SDS011;10356;50.544;9.642;2023-12-07T05:58:35;34.27;;;21.70;;
20393;SDS011;10356;50.544;9.642;2023-12-07T06:01:01;39.20;;;22.77;;
20393;SDS011;10356;50.544;9.642;2023-12-07T06:03:28;41.67;;;23.10;;
20393;SDS011;10356;50.544;9.642;2023-12-07T06:05:55;40.67;;;23.33;;
20393;SDS011;10356;50.544;9.642;2023-12-07T06:08:22;43.13;;;24.47;;
20393;SDS011;10356;50.544;9.642;2023-12-07T06:10:50;39.30;;;23.30;;
20393;SDS011;10356;50.544;9.642;2023-12-07T06:13:16;39.37;;;23.97;;
20393;SDS011;10356;50.544;9.642;2023-12-07T06:15:43;43.30;;;25.17;;
20393;SDS011;10356;50.544;9.642;2023-12-07T06:18:08;41.90;;;25.40;;
20393;SDS011;10356;50.544;9.642;2023-12-07T06:20:35;41.33;;;24.73;;
20393;SDS011;10356;50.544;9.642;2023-12-07T06:23:01;40.53;;;23.33;;
20393;SDS011;10356;50.544;9.642;2023-12-07T06:25:28;42.63;;;25.40;;
20393;SDS011;10356;50.544;9.642;2023-12-07T06:27:56;44.10;;;24.73;;
20393;SDS011;10356;50.544;9.642;2023-12-07T06:30:22;42.23;;;24.43;;
20393;SDS011;10356;50.544;9.642;2023-12-07T06:32:49;42.60;;;23.60;;
20393;SDS011;10356;50.544;9.642;2023-12-07T06:35:16;39.10;;;23.40;;
20393;SDS011;10356;50.544;9.642;2023-12-07T06:37:42;41.07;;;23.33;;
20393;SDS011;10356;50.544;9.642;2023-12-07T06:40:09;43.47;;;25.17;;
20393;SDS011;10356;50.544;9.642;2023-12-07T06:42:36;37.27;;;22.33;;
20393;SDS011;10356;50.544;9.642;2023-12-07T06:45:04;33.20;;;20.07;;
20393;SDS011;10356;50.544;9.642;2023-12-07T06:47:35;43.47;;;23.83;;
20393;SDS011;10356;50.544;9.642;2023-12-07T06:50:02;30.33;;;19.47;;
20393;SDS011;10356;50.544;9.642;2023-12-07T06:52:29;39.87;;;21.83;;
20393;SDS011;10356;50.544;9.642;2023-12-07T06:54:56;39.90;;;23.10;;
20393;SDS011;10356;50.544;9.642;2023-12-07T06:57:22;44.13;;;24.43;;
20393;SDS011;10356;50.544;9.642;2023-12-07T06:59:49;42.43;;;24.23;;
20393;SDS011;10356;50.544;9.642;2023-12-07T07:02:17;38.50;;;22.13;;
20393;SDS011;10356;50.544;9.642;2023-12-07T07:04:43;38.53;;;22.53;;
20393;SDS011;10356;50.544;9.642;2023-12-07T07:07:10;39.33;;;22.50;;
20393;SDS011;10356;50.544;9.642;2023-12-07T07:09:36;38.50;;;22.67;;
20393;SDS011;10356;50.544;9.642;2023-12-07T07:12:03;38.10;;;21.73;;
20393;SDS011;10356;50.544;9.642;2023-12-07T07:14:30;34.67;;;21.13;;
20393;SDS011;10356;50.544;9.642;2023-12-07T07:16:56;37.20;;;22.90;;
20393;SDS011;10356;50.544;9.642;2023-12-07T07:19:24;46.60;;;23.73;;
20393;SDS011;10356;50.544;9.642;2023-12-07T07:21:51;38.87;;;23.07;;
20393;SDS011;10356;50.544;9.642;2023-12-07T07:24:17;43.30;;;24.93;;
20393;SDS011;10356;50.544;9.642;2023-12-07T07:26:44;40.03;;;23.83;;
20393;SDS011;10356;50.544;9.642;2023-12-07T07:29:10;42.67;;;22.97;;
20393;SDS011;10356;50.544;9.642;2023-12-07T07:31:37;38.73;;;21.83;;
20393;SDS011;10356;50.544;9.642;2023-12-07T07:34:04;41.70;;;23.43;;
20393;SDS011;10356;50.544;9.642;2023-12-07T07:36:32;44.33;;;24.10;;
20393;SDS011;10356;50.544;9.642;2023-12-07T07:38:58;37.90;;;22.13;;
20393;SDS011;10356;50.544;9.642;2023-12-07T07:41:25;39.97;;;22.73;;
20393;SDS011;10356;50.544;9.642;2023-12-07T07:43:51;46.27;;;24.53;;
20393;SDS011;10356;50.544;9.642;2023-12-07T07:46:18;43.00;;;23.97;;
20393;SDS011;10356;50.544;9.642;2023-12-07T07:48:44;40.43;;;22.77;;
20393;SDS011;10356;50.544;9.642;2023-12-07T07:51:11;38.13;;;22.97;;
20393;SDS011;10356;50.544;9.642;2023-12-07T07:53:39;40.00;;;23.00;;
20393;SDS011;10356;50.544;9.642;2023-12-07T07:56:05;39.00;;;22.33;;
20393;SDS011;10356;50.544;9.642;2023-12-07T07:58:33;37.13;;;21.43;;
20393;SDS011;10356;50.544;9.642;2023-12-07T08:01:00;43.33;;;24.30;;
20393;SDS011;10356;50.544;9.642;2023-12-07T08:03:27;38.57;;;22.30;;
20393;SDS011;10356;50.544;9.642;2023-12-07T08:05:53;41.70;;;24.27;;
20393;SDS011;10356;50.544;9.642;2023-12-07T08:08:20;46.53;;;24.90;;
20393;SDS011;10356;50.544;9.642;2023-12-07T08:10:48;42.43;;;24.17;;
20393;SDS011;10356;50.544;9.642;2023-12-07T08:13:16;41.33;;;24.47;;
20393;SDS011;10356;50.544;9.642;2023-12-07T08:15:42;40.93;;;24.30;;
20393;SDS011;10356;50.544;9.642;2023-12-07T08:18:09;42.47;;;25.20;;
20393;SDS011;10356;50.544;9.642;2023-12-07T08:20:36;44.57;;;25.23;;
20393;SDS011;10356;50.544;9.642;2023-12-07T08:23:03;40.53;;;23.57;;
20393;SDS011;10356;50.544;9.642;2023-12-07T08:25:29;42.07;;;23.50;;
20393;SDS011;10356;50.544;9.642;2023-12-07T08:27:58;45.23;;;25.37;;
20393;SDS011;10356;50.544;9.642;2023-12-07T08:30:24;39.87;;;23.37;;
20393;SDS011;10356;50.544;9.642;2023-12-07T08:32:51;43.87;;;24.17;;
20393;SDS011;10356;50.544;9.642;2023-12-07T08:35:17;39.37;;;22.40;;
20393;SDS011;10356;50.544;9.642;2023-12-07T08:37:44;47.40;;;26.20;;
20393;SDS011;10356;50.544;9.642;2023-12-07T08:40:10;45.57;;;24.43;;
20393;SDS011;10356;50.544;9.642;2023-12-07T08:42:40;47.53;;;25.90;;
20393;SDS011;10356;50.544;9.642;2023-12-07T08:45:08;47.03;;;26.47;;
20393;SDS011;10356;50.544;9.642;2023-12-07T08:47:35;55.00;;;28.03;;
20393;SDS011;10356;50.544;9.642;2023-12-07T08:50:02;50.70;;;27.93;;
20393;SDS011;10356;50.544;9.642;2023-12-07T08:52:29;52.50;;;28.90;;
20393;SDS011;10356;50.544;9.642;2023-12-07T08:54:56;53.47;;;29.17;;
20393;SDS011;10356;50.544;9.642;2023-12-07T08:57:22;50.80;;;26.90;;
20393;SDS011;10356;50.544;9.642;2023-12-07T08:59:48;54.03;;;27.70;;
20393;SDS011;10356;50.544;9.642;2023-12-07T09:02:16;47.20;;;26.97;;
20393;SDS011;10356;50.544;9.642;2023-12-07T09:04:43;46.63;;;26.23;;
20393;SDS011;10356;50.544;9.642;2023-12-07T09:07:10;44.77;;;25.23;;
20393;SDS011;10356;50.544;9.642;2023-12-07T09:09:40;46.27;;;26.23;;
20393;SDS011;10356;50.544;9.642;2023-12-07T09:12:11;50.30;;;27.67;;
20393;SDS011;10356;50.544;9.642;2023-12-07T09:14:38;50.53;;;27.80;;
20393;SDS011;10356;50.544;9.642;2023-12-07T09:17:05;47.33;;;25.97;;
20393;SDS011;10356;50.544;9.642;2023-12-07T09:19:32;43.80;;;25.47;;
20393;SDS011;10356;50.544;9.642;2023-12-07T09:21:59;46.30;;;24.70;;
20393;SDS011;10356;50.544;9.642;2023-12-07T09:24:26;44.57;;;23.77;;
20393;SDS011;10356;50.544;9.642;2023-12-07T09:26:52;43.53;;;23.93;;
20393;SDS011;10356;50.544;9.642;2023-12-07T09:29:19;40.13;;;22.80;;
20393;SDS011;10356;50.544;9.642;2023-12-07T09:31:45;34.80;;;21.53;;
20393;SDS011;10356;50.544;9.642;2023-12-07T09:34:12;36.73;;;21.83;;
20393;SDS011;10356;50.544;9.642;2023-12-07T09:36:43;40.57;;;21.27;;
20393;SDS011;10356;50.544;9.642;2023-12-07T09:39:10;38.63;;;22.63;;
20393;SDS011;10356;50.544;9.642;2023-12-07T09:41:37;41.30;;;22.33;;
20393;SDS011;10356;50.544;9.642;2023-12-07T09:44:05;46.40;;;22.50;;
20393;SDS011;10356;50.544;9.642;2023-12-07T09:46:32;39.40;;;23.47;;
20393;SDS011;10356;50.544;9.642;2023-12-07T09:48:59;41.33;;;24.20;;
20393;SDS011;10356;50.544;9.642;2023-12-07T09:51:25;38.23;;;22.80;;
20393;SDS011;10356;50.544;9.642;2023-12-07T09:53:55;35.17;;;21.60;;
20393;SDS011;10356;50.544;9.642;2023-12-07T09:56:21;33.30;;;19.50;;
20393;SDS011;10356;50.544;9.642;2023-12-07T09:58:48;28.43;;;17.80;;
20393;SDS011;10356;50.544;9.642;2023-12-07T10:01:14;27.23;;;17.07;;
20393;SDS011;10356;50.544;9.642;2023-12-07T10:03:41;28.03;;;17.57;;
20393;SDS011;10356;50.544;9.642;2023-12-07T10:06:09;21.87;;;14.80;;
20393;SDS011;10356;50.544;9.642;2023-12-07T10:08:35;25.53;;;16.43;;
20393;SDS011;10356;50.544;9.642;2023-12-07T10:11:07;23.27;;;15.37;;
20393;SDS011;10356;50.544;9.642;2023-12-07T10:13:35;24.53;;;15.37;;
20393;SDS011;10356;50.544;9.642;2023-12-07T10:16:05;25.97;;;15.03;;
20393;SDS011;10356;50.544;9.642;2023-12-07T10:18:36;23.27;;;15.97;;
20393;SDS011;10356;50.544;9.642;2023-12-07T10:21:04;26.80;;;17.13;;
20393;SDS011;10356;50.544;9.642;2023-12-07T10:23:31;27.27;;;17.40;;
20393;SDS011;10356;50.544;9.642;2023-12-07T10:25:58;25.87;;;16.47;;
20393;SDS011;10356;50.544;9.642;2023-12-07T10:28:26;21.60;;;14.23;;
20393;SDS011;10356;50.544;9.642;2023-12-07T10:30:53;22.60;;;14.33;;
20393;SDS011;10356;50.544;9.642;2023-12-07T10:33:19;20.93;;;13.97;;
20393;SDS011;10356;50.544;9.642;2023-12-07T10:35:46;22.47;;;14.50;;
20393;SDS011;10356;50.544;9.642;2023-12-07T10:38:14;31.67;;;14.93;;
20393;SDS011;10356;50.544;9.642;2023-12-07T10:40:41;22.40;;;13.90;;
20393;SDS011;10356;50.544;9.642;2023-12-07T10:43:08;26.90;;;13.33;;
20393;SDS011;10356;50.544;9.642;2023-12-07T10:45:36;20.00;;;12.97;;
20393;SDS011;10356;50.544;9.642;2023-12-07T10:48:03;17.80;;;12.33;;
20393;SDS011;10356;50.544;9.642;2023-12-07T10:50:32;19.73;;;13.17;;
20393;SDS011;10356;50.544;9.642;2023-12-07T10:53:04;16.57;;;11.80;;
20393;SDS011;10356;50.544;9.642;2023-12-07T10:55:38;19.50;;;11.77;;
20393;SDS011;10356;50.544;9.642;2023-12-07T10:58:09;18.97;;;11.60;;
20393;SDS011;10356;50.544;9.642;2023-12-07T11:00:39;16.63;;;10.63;;
20393;SDS011;10356;50.544;9.642;2023-12-07T11:03:09;16.10;;;10.87;;
20393;SDS011;10356;50.544;9.642;2023-12-07T11:05:36;15.60;;;11.87;;
20393;SDS011;10356;50.544;9.642;2023-12-07T11:08:04;16.60;;;10.77;;
20393;SDS011;10356;50.544;9.642;2023-12-07T11:10:36;19.63;;;12.20;;
20393;SDS011;10356;50.544;9.642;2023-12-07T11:13:20;17.90;;;11.57;;
20393;SDS011;10356;50.544;9.642;2023-12-07T11:15:52;17.23;;;11.80;;
20393;SDS011;10356;50.544;9.642;2023-12-07T11:18:18;18.20;;;11.33;;
20393;SDS011;10356;50.544;9.642;2023-12-07T11:20:45;17.47;;;11.80;;
20393;SDS011;10356;50.544;9.642;2023-12-07T11:23:15;17.30;;;10.60;;
20393;SDS011;10356;50.544;9.642;2023-12-07T11:25:43;16.77;;;11.27;;
20393;SDS011;10356;50.544;9.642;2023-12-07T11:28:11;16.40;;;10.57;;
20393;SDS011;10356;50.544;9.642;2023-12-07T11:30:41;17.27;;;11.43;;
20393;SDS011;10356;50.544;9.642;2023-12-07T11:33:11;17.07;;;11.43;;
20393;SDS011;10356;50.544;9.642;2023-12-07T11:38:31;20.80;;;13.23;;
20393;SDS011;10356;50.544;9.642;2023-12-07T11:40:57;18.17;;;11.57;;
20393;SDS011;10356;50.544;9.642;2023-12-07T11:43:36;17.07;;;10.90;;
20393;SDS011;10356;50.544;9.642;2023-12-07T11:46:04;17.90;;;12.10;;
20393;SDS011;10356;50.544;9.642;2023-12-07T11:48:34;19.13;;;13.03;;
20393;SDS011;10356;50.544;9.642;2023-12-07T11:51:01;24.20;;;15.83;;
20393;SDS011;10356;50.544;9.642;2023-12-07T11:53:29;20.03;;;13.90;;
20393;SDS011;10356;50.544;9.642;2023-12-07T11:55:57;20.83;;;11.90;;
20393;SDS011;10356;50.544;9.642;2023-12-07T11:58:25;20.07;;;12.53;;
20393;SDS011;10356;50.544;9.642;2023-12-07T12:00:52;18.43;;;11.70;;
20393;SDS011;10356;50.544;9.642;2023-12-07T12:03:19;20.43;;;13.07;;
20393;SDS011;10356;50.544;9.642;2023-12-07T12:05:47;16.20;;;12.00;;
20393;SDS011;10356;50.544;9.642;2023-12-07T12:08:13;15.47;;;10.30;;
20393;SDS011;10356;50.544;9.642;2023-12-07T12:10:40;21.93;;;10.93;;
20393;SDS011;10356;50.544;9.642;2023-12-07T12:13:08;18.63;;;11.83;;
20393;SDS011;10356;50.544;9.642;2023-12-07T12:15:35;20.27;;;12.30;;
20393;SDS011;10356;50.544;9.642;2023-12-07T12:18:01;17.67;;;11.83;;
20393;SDS011;10356;50.544;9.642;2023-12-07T12:20:28;19.90;;;11.67;;
20393;SDS011;10356;50.544;9.642;2023-12-07T12:22:56;17.20;;;11.30;;
20393;SDS011;10356;50.544;9.642;2023-12-07T12:25:23;14.60;;;10.70;;
20393;SDS011;10356;50.544;9.642;2023-12-07T12:27:52;17.90;;;12.10;;
20393;SDS011;10356;50.544;9.642;2023-12-07T12:30:20;17.73;;;11.87;;
20393;SDS011;10356;50.544;9.642;2023-12-07T12:32:48;18.57;;;11.13;;
20393;SDS011;10356;50.544;9.642;2023-12-07T12:35:15;14.37;;;11.13;;
20393;SDS011;10356;50.544;9.642;2023-12-07T12:37:42;16.00;;;10.97;;
20393;SDS011;10356;50.544;9.642;2023-12-07T12:40:11;17.40;;;11.30;;
20393;SDS011;10356;50.544;9.642;2023-12-07T12:42:41;18.07;;;11.80;;
20393;SDS011;10356;50.544;9.642;2023-12-07T12:45:09;16.53;;;11.13;;
20393;SDS011;10356;50.544;9.642;2023-12-07T12:47:37;19.13;;;11.93;;
20393;SDS011;10356;50.544;9.642;2023-12-07T12:50:04;16.83;;;11.70;;
20393;SDS011;10356;50.544;9.642;2023-12-07T12:52:32;36.23;;;22.77;;
20393;SDS011;10356;50.544;9.642;2023-12-07T12:54:58;41.07;;;25.87;;
20393;SDS011;10356;50.544;9.642;2023-12-07T12:57:26;42.03;;;26.77;;
20393;SDS011;10356;50.544;9.642;2023-12-07T12:59:53;24.60;;;15.10;;
20393;SDS011;10356;50.544;9.642;2023-12-07T13:02:20;17.87;;;13.47;;
20393;SDS011;10356;50.544;9.642;2023-12-07T13:04:47;15.33;;;11.73;;
20393;SDS011;10356;50.544;9.642;2023-12-07T13:07:13;17.10;;;11.43;;
20393;SDS011;10356;50.544;9.642;2023-12-07T13:09:40;14.23;;;10.43;;
20393;SDS011;10356;50.544;9.642;2023-12-07T13:12:08;17.07;;;11.00;;
20393;SDS011;10356;50.544;9.642;2023-12-07T13:14:36;38.60;;;22.43;;
20393;SDS011;10356;50.544;9.642;2023-12-07T13:17:05;26.37;;;17.30;;
20393;SDS011;10356;50.544;9.642;2023-12-07T13:19:32;26.47;;;18.00;;
20393;SDS011;10356;50.544;9.642;2023-12-07T13:21:59;26.87;;;18.10;;
20393;SDS011;10356;50.544;9.642;2023-12-07T13:24:26;39.17;;;21.40;;
20393;SDS011;10356;50.544;9.642;2023-12-07T13:26:52;35.87;;;20.73;;
20393;SDS011;10356;50.544;9.642;2023-12-07T13:29:19;48.93;;;25.23;;
20393;SDS011;10356;50.544;9.642;2023-12-07T13:31:47;61.47;;;29.60;;
20393;SDS011;10356;50.544;9.642;2023-12-07T13:34:14;37.60;;;20.10;;
20393;SDS011;10356;50.544;9.642;2023-12-07T13:36:41;31.87;;;17.13;;
20393;SDS011;10356;50.544;9.642;2023-12-07T13:39:08;18.50;;;13.63;;
20393;SDS011;10356;50.544;9.642;2023-12-07T13:41:35;26.00;;;16.57;;
20393;SDS011;10356;50.544;9.642;2023-12-07T13:44:01;22.13;;;14.73;;
20393;SDS011;10356;50.544;9.642;2023-12-07T13:46:30;18.70;;;13.43;;
20393;SDS011;10356;50.544;9.642;2023-12-07T13:48:59;19.57;;;12.27;;
20393;SDS011;10356;50.544;9.642;2023-12-07T13:51:26;16.60;;;13.10;;
20393;SDS011;10356;50.544;9.642;2023-12-07T13:53:52;18.63;;;12.83;;
20393;SDS011;10356;50.544;9.642;2023-12-07T13:56:21;16.47;;;11.93;;
20393;SDS011;10356;50.544;9.642;2023-12-07T13:58:48;30.97;;;17.93;;
20393;SDS011;10356;50.544;9.642;2023-12-07T14:01:15;32.63;;;16.90;;
20393;SDS011;10356;50.544;9.642;2023-12-07T14:03:41;21.03;;;13.10;;
20393;SDS011;10356;50.544;9.642;2023-12-07T14:06:10;19.77;;;13.50;;
20393;SDS011;10356;50.544;9.642;2023-12-07T14:08:37;16.93;;;12.30;;
20393;SDS011;10356;50.544;9.642;2023-12-07T14:11:04;19.03;;;13.33;;
20393;SDS011;10356;50.544;9.642;2023-12-07T14:13:30;18.40;;;13.63;;
20393;SDS011;10356;50.544;9.642;2023-12-07T14:15:57;23.60;;;15.70;;
20393;SDS011;10356;50.544;9.642;2023-12-07T14:18:23;20.93;;;14.23;;
20393;SDS011;10356;50.544;9.642;2023-12-07T14:20:50;17.73;;;13.30;;
20393;SDS011;10356;50.544;9.642;2023-12-07T14:23:18;18.87;;;14.10;;